sensor_id;sensor_type;location;lat;lon;timestamp;P1;durP1;ratioP1;P2;durP2;ratioP2
50104;SDS011;47690;39.202;-77.198;2023-04-04T00:02:23;1.85;;;1.73;;
50104;SDS011;47690;39.202;-77.198;2023-04-04T00:04:52;1.85;;;1.75;;
50104;SDS011;47690;39.202;-77.198;2023-04-04T00:07:21;3.15;;;1.70;;
50104;SDS011;47690;39.202;-77.198;2023-04-04T00:09:49;1.70;;;1.60;;
50104;SDS011;47690;39.202;-77.198;2023-04-04T00:12:18;1.95;;;1.75;;
50104;SDS011;47690;39.202;-77.198;2023-04-04T00:14:49;1.70;;;1.60;;
50104;SDS011;47690;39.202;-77.198;2023-04-04T00:17:18;1.73;;;1.63;;
50104;SDS011;47690;39.202;-77.198;2023-04-04T00:19:48;1.75;;;1.63;;
50104;SDS011;47690;39.202;-77.198;2023-04-04T00:22:17;3.20;;;1.90;;
50104;SDS011;47690;39.202;-77.198;2023-04-04T00:24:46;2.13;;;1.80;;
50104;SDS011;47690;39.202;-77.198;2023-04-04T00:27:15;1.92;;;1.80;;
50104;SDS011;47690;39.202;-77.198;2023-04-04T00:29:44;2.10;;;1.70;;
50104;SDS011;47690;39.202;-77.198;2023-04-04T00:32:13;1.70;;;1.60;;
50104;SDS011;47690;39.202;-77.198;2023-04-04T00:34:43;2.33;;;1.70;;
50104;SDS011;47690;39.202;-77.198;2023-04-04T00:37:12;3.08;;;1.75;;
50104;SDS011;47690;39.202;-77.198;2023-04-04T00:39:40;1.80;;;1.70;;
50104;SDS011;47690;39.202;-77.198;2023-04-04T00:42:09;1.65;;;1.55;;
50104;SDS011;47690;39.202;-77.198;2023-04-04T00:44:37;2.30;;;1.85;;
50104;SDS011;47690;39.202;-77.198;2023-04-04T00:47:06;3.17;;;1.80;;
50104;SDS011;47690;39.202;-77.198;2023-04-04T00:49:35;2.65;;;1.88;;
50104;SDS011;47690;39.202;-77.198;2023-04-04T00:52:04;2.78;;;1.80;;
50104;SDS011;47690;39.202;-77.198;2023-04-04T00:54:34;1.55;;;1.45;;
50104;SDS011;47690;39.202;-77.198;2023-04-04T00:57:04;2.05;;;1.85;;
50104;SDS011;47690;39.202;-77.198;2023-04-04T00:59:36;2.10;;;1.70;;
50104;SDS011;47690;39.202;-77.198;2023-04-04T01:02:05;1.98;;;1.77;;
50104;SDS011;47690;39.202;-77.198;2023-04-04T01:04:34;2.47;;;2.00;;
50104;SDS011;47690;39.202;-77.198;2023-04-04T01:07:04;1.67;;;1.55;;
50104;SDS011;47690;39.202;-77.198;2023-04-04T01:09:33;2.13;;;1.70;;
50104;SDS011;47690;39.202;-77.198;2023-04-04T01:12:02;1.92;;;1.77;;
50104;SDS011;47690;39.202;-77.198;2023-04-04T01:14:31;1.90;;;1.70;;
50104;SDS011;47690;39.202;-77.198;2023-04-04T01:17:00;1.70;;;1.60;;
50104;SDS011;47690;39.202;-77.198;2023-04-04T01:19:31;2.15;;;1.80;;
50104;SDS011;47690;39.202;-77.198;2023-04-04T01:22:12;3.63;;;2.00;;
50104;SDS011;47690;39.202;-77.198;2023-04-04T01:24:43;1.83;;;1.70;;
50104;SDS011;47690;39.202;-77.198;2023-04-04T01:27:14;1.60;;;1.50;;
50104;SDS011;47690;39.202;-77.198;2023-04-04T01:29:52;1.73;;;1.63;;
50104;SDS011;47690;39.202;-77.198;2023-04-04T01:35:17;1.70;;;1.60;;
50104;SDS011;47690;39.202;-77.198;2023-04-04T01:38:17;2.08;;;1.90;;
50104;SDS011;47690;39.202;-77.198;2023-04-04T01:41:02;2.80;;;1.80;;
50104;SDS011;47690;39.202;-77.198;2023-04-04T01:43:37;2.55;;;2.10;;
50104;SDS011;47690;39.202;-77.198;2023-04-04T01:46:06;2.30;;;2.10;;
50104;SDS011;47690;39.202;-77.198;2023-04-04T01:48:35;2.58;;;2.25;;
50104;SDS011;47690;39.202;-77.198;2023-04-04T01:51:06;2.38;;;2.17;;
50104;SDS011;47690;39.202;-77.198;2023-04-04T01:53:36;2.40;;;2.08;;
50104;SDS011;47690;39.202;-77.198;2023-04-04T01:56:05;2.85;;;2.30;;
50104;SDS011;47690;39.202;-77.198;2023-04-04T01:58:34;3.55;;;2.13;;
50104;SDS011;47690;39.202;-77.198;2023-04-04T02:01:04;2.05;;;1.85;;
50104;SDS011;47690;39.202;-77.198;2023-04-04T02:03:33;2.38;;;2.08;;
50104;SDS011;47690;39.202;-77.198;2023-04-04T02:06:02;2.30;;;2.10;;
50104;SDS011;47690;39.202;-77.198;2023-04-04T02:08:31;4.30;;;2.05;;
50104;SDS011;47690;39.202;-77.198;2023-04-04T02:11:00;2.08;;;1.88;;
50104;SDS011;47690;39.202;-77.198;2023-04-04T02:13:29;2.13;;;1.85;;
50104;SDS011;47690;39.202;-77.198;2023-04-04T02:15:59;2.25;;;2.00;;
50104;SDS011;47690;39.202;-77.198;2023-04-04T02:18:29;2.60;;;1.85;;
50104;SDS011;47690;39.202;-77.198;2023-04-04T02:20:57;2.13;;;1.65;;
50104;SDS011;47690;39.202;-77.198;2023-04-04T02:23:26;2.10;;;1.90;;
50104;SDS011;47690;39.202;-77.198;2023-04-04T02:25:56;2.90;;;1.88;;
50104;SDS011;47690;39.202;-77.198;2023-04-04T02:28:27;2.33;;;2.00;;
50104;SDS011;47690;39.202;-77.198;2023-04-04T02:30:59;2.20;;;2.00;;
50104;SDS011;47690;39.202;-77.198;2023-04-04T02:33:32;2.33;;;1.92;;
50104;SDS011;47690;39.202;-77.198;2023-04-04T02:36:04;1.90;;;1.80;;
50104;SDS011;47690;39.202;-77.198;2023-04-04T02:38:32;2.22;;;2.00;;
50104;SDS011;47690;39.202;-77.198;2023-04-04T02:41:04;2.17;;;1.95;;
50104;SDS011;47690;39.202;-77.198;2023-04-04T02:43:32;2.28;;;2.00;;
50104;SDS011;47690;39.202;-77.198;2023-04-04T02:46:04;2.13;;;1.88;;
50104;SDS011;47690;39.202;-77.198;2023-04-04T02:48:48;2.53;;;1.80;;
50104;SDS011;47690;39.202;-77.198;2023-04-04T02:51:19;3.38;;;2.00;;
50104;SDS011;47690;39.202;-77.198;2023-04-04T02:53:48;2.30;;;1.95;;
50104;SDS011;47690;39.202;-77.198;2023-04-04T02:56:25;1.92;;;1.80;;
50104;SDS011;47690;39.202;-77.198;2023-04-04T02:58:54;2.05;;;1.80;;
50104;SDS011;47690;39.202;-77.198;2023-04-04T03:01:22;1.75;;;1.65;;
50104;SDS011;47690;39.202;-77.198;2023-04-04T03:03:52;2.00;;;1.80;;
50104;SDS011;47690;39.202;-77.198;2023-04-04T03:06:22;2.28;;;1.98;;
50104;SDS011;47690;39.202;-77.198;2023-04-04T03:08:50;2.10;;;1.90;;
50104;SDS011;47690;39.202;-77.198;2023-04-04T03:11:20;2.40;;;1.92;;
50104;SDS011;47690;39.202;-77.198;2023-04-04T03:13:51;1.77;;;1.67;;
50104;SDS011;47690;39.202;-77.198;2023-04-04T03:16:31;2.20;;;2.00;;
50104;SDS011;47690;39.202;-77.198;2023-04-04T03:19:00;2.20;;;1.88;;
50104;SDS011;47690;39.202;-77.198;2023-04-04T03:21:29;2.20;;;1.88;;
50104;SDS011;47690;39.202;-77.198;2023-04-04T03:23:58;1.80;;;1.70;;
50104;SDS011;47690;39.202;-77.198;2023-04-04T03:26:27;2.03;;;1.77;;
50104;SDS011;47690;39.202;-77.198;2023-04-04T03:28:58;2.35;;;1.77;;
50104;SDS011;47690;39.202;-77.198;2023-04-04T03:31:29;1.77;;;1.67;;
50104;SDS011;47690;39.202;-77.198;2023-04-04T03:33:59;2.22;;;1.80;;
50104;SDS011;47690;39.202;-77.198;2023-04-04T03:36:29;2.13;;;1.77;;
50104;SDS011;47690;39.202;-77.198;2023-04-04T03:38:58;2.10;;;1.80;;
50104;SDS011;47690;39.202;-77.198;2023-04-04T03:41:29;2.10;;;1.90;;
50104;SDS011;47690;39.202;-77.198;2023-04-04T03:43:58;2.47;;;1.95;;
50104;SDS011;47690;39.202;-77.198;2023-04-04T03:46:29;1.88;;;1.75;;
50104;SDS011;47690;39.202;-77.198;2023-04-04T03:48:59;2.40;;;1.90;;
50104;SDS011;47690;39.202;-77.198;2023-04-04T03:51:29;3.20;;;2.10;;
50104;SDS011;47690;39.202;-77.198;2023-04-04T03:53:59;2.58;;;1.98;;
50104;SDS011;47690;39.202;-77.198;2023-04-04T03:56:31;3.40;;;1.98;;
50104;SDS011;47690;39.202;-77.198;2023-04-04T03:59:07;2.00;;;1.90;;
50104;SDS011;47690;39.202;-77.198;2023-04-04T04:01:37;2.53;;;2.00;;
50104;SDS011;47690;39.202;-77.198;2023-04-04T04:04:08;2.05;;;1.85;;
50104;SDS011;47690;39.202;-77.198;2023-04-04T04:06:39;2.95;;;2.00;;
50104;SDS011;47690;39.202;-77.198;2023-04-04T04:09:08;2.10;;;1.90;;
50104;SDS011;47690;39.202;-77.198;2023-04-04T04:11:41;2.30;;;2.10;;
50104;SDS011;47690;39.202;-77.198;2023-04-04T04:14:10;2.13;;;1.90;;
50104;SDS011;47690;39.202;-77.198;2023-04-04T04:16:40;2.00;;;1.80;;
50104;SDS011;47690;39.202;-77.198;2023-04-04T04:19:16;2.22;;;2.00;;
50104;SDS011;47690;39.202;-77.198;2023-04-04T04:21:46;2.72;;;2.10;;
50104;SDS011;47690;39.202;-77.198;2023-04-04T04:24:16;2.33;;;2.13;;
50104;SDS011;47690;39.202;-77.198;2023-04-04T04:26:46;2.88;;;2.03;;
50104;SDS011;47690;39.202;-77.198;2023-04-04T04:29:16;2.00;;;1.80;;
50104;SDS011;47690;39.202;-77.198;2023-04-04T04:31:46;2.88;;;1.85;;
50104;SDS011;47690;39.202;-77.198;2023-04-04T04:34:15;2.30;;;2.08;;
50104;SDS011;47690;39.202;-77.198;2023-04-04T04:36:46;3.25;;;2.03;;
50104;SDS011;47690;39.202;-77.198;2023-04-04T04:39:24;2.25;;;1.92;;
50104;SDS011;47690;39.202;-77.198;2023-04-04T04:42:09;2.05;;;1.90;;
50104;SDS011;47690;39.202;-77.198;2023-04-04T04:44:46;3.10;;;2.15;;
50104;SDS011;47690;39.202;-77.198;2023-04-04T04:47:15;2.30;;;2.10;;
50104;SDS011;47690;39.202;-77.198;2023-04-04T04:49:44;2.70;;;2.10;;
50104;SDS011;47690;39.202;-77.198;2023-04-04T04:52:21;2.38;;;1.98;;
50104;SDS011;47690;39.202;-77.198;2023-04-04T04:54:50;2.53;;;2.10;;
50104;SDS011;47690;39.202;-77.198;2023-04-04T04:57:19;2.20;;;2.00;;
50104;SDS011;47690;39.202;-77.198;2023-04-04T04:59:48;2.30;;;2.10;;
50104;SDS011;47690;39.202;-77.198;2023-04-04T05:02:18;2.50;;;2.13;;
50104;SDS011;47690;39.202;-77.198;2023-04-04T05:04:47;2.47;;;2.10;;
50104;SDS011;47690;39.202;-77.198;2023-04-04T05:07:16;2.30;;;2.00;;
50104;SDS011;47690;39.202;-77.198;2023-04-04T05:09:46;2.40;;;2.20;;
50104;SDS011;47690;39.202;-77.198;2023-04-04T05:12:15;2.60;;;2.20;;
50104;SDS011;47690;39.202;-77.198;2023-04-04T05:14:48;2.50;;;2.30;;
50104;SDS011;47690;39.202;-77.198;2023-04-04T05:17:17;2.92;;;2.30;;
50104;SDS011;47690;39.202;-77.198;2023-04-04T05:19:47;2.83;;;2.33;;
50104;SDS011;47690;39.202;-77.198;2023-04-04T05:22:20;2.53;;;2.30;;
50104;SDS011;47690;39.202;-77.198;2023-04-04T05:24:51;4.68;;;2.60;;
50104;SDS011;47690;39.202;-77.198;2023-04-04T05:27:24;3.45;;;2.63;;
50104;SDS011;47690;39.202;-77.198;2023-04-04T05:29:58;2.75;;;2.30;;
50104;SDS011;47690;39.202;-77.198;2023-04-04T05:32:37;2.95;;;2.60;;
50104;SDS011;47690;39.202;-77.198;2023-04-04T05:35:16;2.70;;;2.40;;
50104;SDS011;47690;39.202;-77.198;2023-04-04T05:37:46;2.95;;;2.55;;
50104;SDS011;47690;39.202;-77.198;2023-04-04T05:40:17;2.80;;;2.30;;
50104;SDS011;47690;39.202;-77.198;2023-04-04T05:42:58;4.07;;;2.40;;
50104;SDS011;47690;39.202;-77.198;2023-04-04T05:45:35;2.40;;;2.20;;
50104;SDS011;47690;39.202;-77.198;2023-04-04T05:48:08;2.95;;;2.47;;
50104;SDS011;47690;39.202;-77.198;2023-04-04T05:50:46;2.58;;;2.25;;
50104;SDS011;47690;39.202;-77.198;2023-04-04T05:53:18;2.75;;;2.42;;
50104;SDS011;47690;39.202;-77.198;2023-04-04T05:55:54;3.45;;;2.38;;
50104;SDS011;47690;39.202;-77.198;2023-04-04T05:58:29;3.00;;;2.55;;
50104;SDS011;47690;39.202;-77.198;2023-04-04T06:01:01;3.38;;;2.20;;
50104;SDS011;47690;39.202;-77.198;2023-04-04T06:03:38;3.85;;;2.22;;
50104;SDS011;47690;39.202;-77.198;2023-04-04T06:06:12;2.80;;;2.20;;
50104;SDS011;47690;39.202;-77.198;2023-04-04T06:08:41;2.40;;;2.20;;
50104;SDS011;47690;39.202;-77.198;2023-04-04T06:11:19;4.18;;;2.35;;
50104;SDS011;47690;39.202;-77.198;2023-04-04T06:13:54;3.30;;;2.13;;
50104;SDS011;47690;39.202;-77.198;2023-04-04T06:16:26;2.13;;;1.95;;
50104;SDS011;47690;39.202;-77.198;2023-04-04T06:18:55;2.30;;;2.10;;
50104;SDS011;47690;39.202;-77.198;2023-04-04T06:21:26;2.40;;;2.20;;
50104;SDS011;47690;39.202;-77.198;2023-04-04T06:23:55;2.63;;;2.42;;
50104;SDS011;47690;39.202;-77.198;2023-04-04T06:26:24;2.30;;;2.10;;
50104;SDS011;47690;39.202;-77.198;2023-04-04T06:33:09;2.53;;;2.33;;
50104;SDS011;47690;39.202;-77.198;2023-04-04T06:35:43;2.57;;;2.13;;
50104;SDS011;47690;39.202;-77.198;2023-04-04T06:38:13;2.55;;;2.35;;
50104;SDS011;47690;39.202;-77.198;2023-04-04T06:40:43;2.30;;;2.00;;
50104;SDS011;47690;39.202;-77.198;2023-04-04T06:43:13;2.60;;;2.15;;
50104;SDS011;47690;39.202;-77.198;2023-04-04T06:45:46;2.90;;;2.30;;
50104;SDS011;47690;39.202;-77.198;2023-04-04T06:48:14;3.15;;;2.22;;
50104;SDS011;47690;39.202;-77.198;2023-04-04T06:50:44;2.65;;;2.28;;
50104;SDS011;47690;39.202;-77.198;2023-04-04T06:53:15;4.65;;;2.45;;
50104;SDS011;47690;39.202;-77.198;2023-04-04T06:55:44;2.55;;;2.22;;
50104;SDS011;47690;39.202;-77.198;2023-04-04T06:58:13;3.80;;;2.35;;
50104;SDS011;47690;39.202;-77.198;2023-04-04T07:00:42;2.63;;;2.28;;
50104;SDS011;47690;39.202;-77.198;2023-04-04T07:03:11;2.58;;;2.38;;
50104;SDS011;47690;39.202;-77.198;2023-04-04T07:05:41;3.22;;;2.50;;
50104;SDS011;47690;39.202;-77.198;2023-04-04T07:08:10;3.03;;;2.47;;
50104;SDS011;47690;39.202;-77.198;2023-04-04T07:10:39;2.55;;;2.30;;
50104;SDS011;47690;39.202;-77.198;2023-04-04T07:13:09;3.63;;;2.25;;
50104;SDS011;47690;39.202;-77.198;2023-04-04T07:15:38;2.92;;;2.33;;
50104;SDS011;47690;39.202;-77.198;2023-04-04T07:18:08;3.08;;;2.58;;
50104;SDS011;47690;39.202;-77.198;2023-04-04T07:20:38;4.15;;;2.50;;
50104;SDS011;47690;39.202;-77.198;2023-04-04T07:23:07;4.63;;;2.50;;
50104;SDS011;47690;39.202;-77.198;2023-04-04T07:25:40;2.97;;;2.25;;
50104;SDS011;47690;39.202;-77.198;2023-04-04T07:28:10;3.20;;;2.40;;
50104;SDS011;47690;39.202;-77.198;2023-04-04T07:30:40;2.88;;;2.30;;
50104;SDS011;47690;39.202;-77.198;2023-04-04T07:33:10;2.42;;;2.22;;
50104;SDS011;47690;39.202;-77.198;2023-04-04T07:35:39;3.20;;;2.50;;
50104;SDS011;47690;39.202;-77.198;2023-04-04T07:38:09;2.97;;;2.50;;
50104;SDS011;47690;39.202;-77.198;2023-04-04T07:40:42;2.50;;;2.05;;
50104;SDS011;47690;39.202;-77.198;2023-04-04T07:43:11;3.20;;;2.80;;
50104;SDS011;47690;39.202;-77.198;2023-04-04T07:45:42;2.92;;;2.40;;
50104;SDS011;47690;39.202;-77.198;2023-04-04T07:48:11;3.45;;;2.45;;
50104;SDS011;47690;39.202;-77.198;2023-04-04T07:50:41;4.10;;;2.40;;
50104;SDS011;47690;39.202;-77.198;2023-04-04T07:53:10;3.03;;;2.45;;
50104;SDS011;47690;39.202;-77.198;2023-04-04T07:55:39;2.60;;;2.33;;
50104;SDS011;47690;39.202;-77.198;2023-04-04T07:58:07;2.97;;;2.42;;
50104;SDS011;47690;39.202;-77.198;2023-04-04T08:00:36;3.78;;;2.40;;
50104;SDS011;47690;39.202;-77.198;2023-04-04T08:03:06;3.50;;;2.63;;
50104;SDS011;47690;39.202;-77.198;2023-04-04T08:05:35;2.85;;;2.38;;
50104;SDS011;47690;39.202;-77.198;2023-04-04T08:08:05;2.67;;;2.20;;
50104;SDS011;47690;39.202;-77.198;2023-04-04T08:10:34;2.97;;;2.63;;
50104;SDS011;47690;39.202;-77.198;2023-04-04T08:13:04;2.88;;;2.53;;
50104;SDS011;47690;39.202;-77.198;2023-04-04T08:15:37;3.33;;;2.42;;
50104;SDS011;47690;39.202;-77.198;2023-04-04T08:18:09;4.00;;;2.40;;
50104;SDS011;47690;39.202;-77.198;2023-04-04T08:20:39;3.20;;;2.50;;
50104;SDS011;47690;39.202;-77.198;2023-04-04T08:23:08;3.92;;;2.47;;
50104;SDS011;47690;39.202;-77.198;2023-04-04T08:25:37;2.60;;;2.40;;
50104;SDS011;47690;39.202;-77.198;2023-04-04T08:28:06;3.30;;;2.30;;
50104;SDS011;47690;39.202;-77.198;2023-04-04T08:30:35;3.17;;;2.30;;
50104;SDS011;47690;39.202;-77.198;2023-04-04T08:33:06;3.47;;;2.63;;
50104;SDS011;47690;39.202;-77.198;2023-04-04T08:35:35;3.47;;;2.40;;
50104;SDS011;47690;39.202;-77.198;2023-04-04T08:38:06;3.58;;;2.60;;
50104;SDS011;47690;39.202;-77.198;2023-04-04T08:40:35;3.85;;;2.60;;
50104;SDS011;47690;39.202;-77.198;2023-04-04T08:43:06;3.75;;;2.40;;
50104;SDS011;47690;39.202;-77.198;2023-04-04T08:45:36;2.97;;;2.50;;
50104;SDS011;47690;39.202;-77.198;2023-04-04T08:48:10;2.67;;;2.22;;
50104;SDS011;47690;39.202;-77.198;2023-04-04T08:50:41;3.28;;;2.50;;
50104;SDS011;47690;39.202;-77.198;2023-04-04T08:53:11;2.75;;;2.45;;
50104;SDS011;47690;39.202;-77.198;2023-04-04T08:55:41;2.75;;;2.40;;
50104;SDS011;47690;39.202;-77.198;2023-04-04T08:58:10;3.20;;;2.63;;
50104;SDS011;47690;39.202;-77.198;2023-04-04T09:00:39;4.55;;;2.60;;
50104;SDS011;47690;39.202;-77.198;2023-04-04T09:03:22;2.78;;;2.50;;
50104;SDS011;47690;39.202;-77.198;2023-04-04T09:05:58;2.97;;;2.50;;
50104;SDS011;47690;39.202;-77.198;2023-04-04T09:08:31;2.70;;;2.20;;
50104;SDS011;47690;39.202;-77.198;2023-04-04T09:11:02;3.67;;;2.70;;
50104;SDS011;47690;39.202;-77.198;2023-04-04T09:13:31;3.78;;;2.42;;
50104;SDS011;47690;39.202;-77.198;2023-04-04T09:16:00;3.35;;;2.42;;
50104;SDS011;47690;39.202;-77.198;2023-04-04T09:18:29;2.78;;;2.50;;
50104;SDS011;47690;39.202;-77.198;2023-04-04T09:20:59;3.45;;;2.47;;
50104;SDS011;47690;39.202;-77.198;2023-04-04T09:23:39;3.13;;;2.42;;
50104;SDS011;47690;39.202;-77.198;2023-04-04T09:26:11;4.47;;;2.60;;
50104;SDS011;47690;39.202;-77.198;2023-04-04T09:28:44;3.15;;;2.45;;
50104;SDS011;47690;39.202;-77.198;2023-04-04T09:31:20;2.40;;;2.20;;
50104;SDS011;47690;39.202;-77.198;2023-04-04T09:33:53;2.80;;;2.50;;
50104;SDS011;47690;39.202;-77.198;2023-04-04T09:36:21;2.72;;;2.42;;
50104;SDS011;47690;39.202;-77.198;2023-04-04T09:38:55;4.22;;;2.58;;
50104;SDS011;47690;39.202;-77.198;2023-04-04T09:41:26;4.00;;;2.53;;
50104;SDS011;47690;39.202;-77.198;2023-04-04T09:43:56;3.00;;;2.50;;
50104;SDS011;47690;39.202;-77.198;2023-04-04T09:46:26;3.00;;;2.50;;
50104;SDS011;47690;39.202;-77.198;2023-04-04T09:48:55;3.22;;;2.60;;
50104;SDS011;47690;39.202;-77.198;2023-04-04T09:51:32;2.50;;;2.30;;
50104;SDS011;47690;39.202;-77.198;2023-04-04T09:54:08;2.80;;;2.40;;
50104;SDS011;47690;39.202;-77.198;2023-04-04T09:56:53;2.92;;;2.63;;
50104;SDS011;47690;39.202;-77.198;2023-04-04T09:59:23;2.58;;;2.38;;
50104;SDS011;47690;39.202;-77.198;2023-04-04T10:01:53;3.22;;;2.60;;
50104;SDS011;47690;39.202;-77.198;2023-04-04T10:04:22;2.90;;;2.30;;
50104;SDS011;47690;39.202;-77.198;2023-04-04T10:06:54;3.85;;;2.70;;
50104;SDS011;47690;39.202;-77.198;2023-04-04T10:09:24;3.53;;;2.30;;
50104;SDS011;47690;39.202;-77.198;2023-04-04T10:12:06;3.75;;;2.40;;
50104;SDS011;47690;39.202;-77.198;2023-04-04T10:14:36;3.33;;;2.65;;
50104;SDS011;47690;39.202;-77.198;2023-04-04T10:17:07;3.25;;;2.40;;
50104;SDS011;47690;39.202;-77.198;2023-04-04T10:19:40;4.63;;;2.38;;
50104;SDS011;47690;39.202;-77.198;2023-04-04T10:22:11;3.17;;;2.50;;
50104;SDS011;47690;39.202;-77.198;2023-04-04T10:24:42;2.65;;;2.40;;
50104;SDS011;47690;39.202;-77.198;2023-04-04T10:27:11;4.30;;;2.70;;
50104;SDS011;47690;39.202;-77.198;2023-04-04T10:29:40;4.07;;;2.50;;
50104;SDS011;47690;39.202;-77.198;2023-04-04T10:32:10;3.30;;;2.70;;
50104;SDS011;47690;39.202;-77.198;2023-04-04T10:34:48;3.38;;;2.47;;
50104;SDS011;47690;39.202;-77.198;2023-04-04T10:37:30;2.80;;;2.35;;
50104;SDS011;47690;39.202;-77.198;2023-04-04T10:42:47;4.25;;;2.40;;
50104;SDS011;47690;39.202;-77.198;2023-04-04T10:45:18;2.97;;;2.35;;
50104;SDS011;47690;39.202;-77.198;2023-04-04T10:47:48;2.97;;;2.35;;
50104;SDS011;47690;39.202;-77.198;2023-04-04T10:50:19;3.05;;;2.50;;
50104;SDS011;47690;39.202;-77.198;2023-04-04T10:52:48;2.95;;;2.40;;
50104;SDS011;47690;39.202;-77.198;2023-04-04T10:55:19;2.63;;;2.40;;
50104;SDS011;47690;39.202;-77.198;2023-04-04T10:57:49;2.95;;;2.45;;
50104;SDS011;47690;39.202;-77.198;2023-04-04T11:00:21;2.78;;;2.42;;
50104;SDS011;47690;39.202;-77.198;2023-04-04T11:05:32;3.05;;;2.30;;
50104;SDS011;47690;39.202;-77.198;2023-04-04T11:08:17;2.60;;;2.28;;
50104;SDS011;47690;39.202;-77.198;2023-04-04T11:10:53;2.40;;;2.10;;
50104;SDS011;47690;39.202;-77.198;2023-04-04T11:21:13;3.40;;;2.50;;
50104;SDS011;47690;39.202;-77.198;2023-04-04T11:26:42;2.90;;;2.60;;
50104;SDS011;47690;39.202;-77.198;2023-04-04T11:29:18;2.72;;;2.47;;
50104;SDS011;47690;39.202;-77.198;2023-04-04T11:31:49;2.63;;;2.40;;
50104;SDS011;47690;39.202;-77.198;2023-04-04T11:34:29;2.50;;;2.30;;
50104;SDS011;47690;39.202;-77.198;2023-04-04T11:37:13;3.22;;;2.50;;
50104;SDS011;47690;39.202;-77.198;2023-04-04T11:39:47;2.92;;;2.55;;
50104;SDS011;47690;39.202;-77.198;2023-04-04T11:42:24;2.83;;;2.30;;
50104;SDS011;47690;39.202;-77.198;2023-04-04T11:45:04;2.80;;;2.40;;
50104;SDS011;47690;39.202;-77.198;2023-04-04T11:47:37;3.47;;;2.38;;
50104;SDS011;47690;39.202;-77.198;2023-04-04T11:50:07;4.20;;;2.75;;
50104;SDS011;47690;39.202;-77.198;2023-04-04T11:52:38;2.90;;;2.42;;
50104;SDS011;47690;39.202;-77.198;2023-04-04T11:55:16;2.65;;;2.45;;
50104;SDS011;47690;39.202;-77.198;2023-04-04T11:57:49;2.75;;;2.47;;
50104;SDS011;47690;39.202;-77.198;2023-04-04T12:00:31;2.80;;;2.45;;
50104;SDS011;47690;39.202;-77.198;2023-04-04T12:03:05;2.85;;;2.53;;
50104;SDS011;47690;39.202;-77.198;2023-04-04T12:05:39;3.13;;;2.45;;
50104;SDS011;47690;39.202;-77.198;2023-04-04T12:08:12;2.53;;;2.30;;
50104;SDS011;47690;39.202;-77.198;2023-04-04T12:10:42;2.45;;;2.25;;
50104;SDS011;47690;39.202;-77.198;2023-04-04T12:13:13;2.70;;;2.50;;
50104;SDS011;47690;39.202;-77.198;2023-04-04T12:15:41;2.95;;;2.35;;
50104;SDS011;47690;39.202;-77.198;2023-04-04T12:18:18;3.22;;;2.40;;
50104;SDS011;47690;39.202;-77.198;2023-04-04T12:20:52;3.47;;;2.40;;
50104;SDS011;47690;39.202;-77.198;2023-04-04T12:23:25;3.40;;;2.50;;
50104;SDS011;47690;39.202;-77.198;2023-04-04T12:25:55;2.65;;;2.30;;
50104;SDS011;47690;39.202;-77.198;2023-04-04T12:28:26;3.53;;;2.60;;
50104;SDS011;47690;39.202;-77.198;2023-04-04T12:30:59;2.72;;;2.22;;
50104;SDS011;47690;39.202;-77.198;2023-04-04T12:33:32;2.53;;;2.20;;
50104;SDS011;47690;39.202;-77.198;2023-04-04T12:36:02;3.22;;;2.22;;
50104;SDS011;47690;39.202;-77.198;2023-04-04T12:38:36;3.20;;;2.50;;
50104;SDS011;47690;39.202;-77.198;2023-04-04T12:41:27;2.90;;;2.40;;
50104;SDS011;47690;39.202;-77.198;2023-04-04T12:44:04;3.80;;;2.60;;
50104;SDS011;47690;39.202;-77.198;2023-04-04T12:46:37;2.42;;;2.22;;
50104;SDS011;47690;39.202;-77.198;2023-04-04T12:49:09;2.50;;;2.30;;
50104;SDS011;47690;39.202;-77.198;2023-04-04T12:51:39;3.22;;;2.35;;
50104;SDS011;47690;39.202;-77.198;2023-04-04T12:54:22;2.60;;;2.40;;
50104;SDS011;47690;39.202;-77.198;2023-04-04T12:56:57;3.17;;;2.20;;
50104;SDS011;47690;39.202;-77.198;2023-04-04T12:59:27;2.53;;;2.30;;
50104;SDS011;47690;39.202;-77.198;2023-04-04T13:02:04;3.08;;;2.63;;
50104;SDS011;47690;39.202;-77.198;2023-04-04T13:04:37;2.53;;;2.20;;
50104;SDS011;47690;39.202;-77.198;2023-04-04T13:07:20;2.65;;;2.30;;
50104;SDS011;47690;39.202;-77.198;2023-04-04T13:09:57;3.33;;;2.30;;
50104;SDS011;47690;39.202;-77.198;2023-04-04T13:18:23;3.13;;;2.45;;
50104;SDS011;47690;39.202;-77.198;2023-04-04T13:20:54;2.95;;;2.33;;
50104;SDS011;47690;39.202;-77.198;2023-04-04T13:23:23;2.78;;;2.30;;
50104;SDS011;47690;39.202;-77.198;2023-04-04T13:25:55;3.03;;;2.30;;
50104;SDS011;47690;39.202;-77.198;2023-04-04T13:28:26;2.40;;;2.20;;
50104;SDS011;47690;39.202;-77.198;2023-04-04T13:30:56;2.75;;;2.33;;
50104;SDS011;47690;39.202;-77.198;2023-04-04T13:33:26;2.53;;;2.30;;
50104;SDS011;47690;39.202;-77.198;2023-04-04T13:35:55;3.65;;;2.13;;
50104;SDS011;47690;39.202;-77.198;2023-04-04T13:38:26;3.97;;;2.50;;
50104;SDS011;47690;39.202;-77.198;2023-04-04T13:41:01;2.30;;;2.10;;
50104;SDS011;47690;39.202;-77.198;2023-04-04T13:43:30;2.50;;;2.30;;
50104;SDS011;47690;39.202;-77.198;2023-04-04T13:46:00;3.35;;;2.50;;
50104;SDS011;47690;39.202;-77.198;2023-04-04T13:48:29;2.35;;;2.15;;
50104;SDS011;47690;39.202;-77.198;2023-04-04T13:50:59;2.58;;;2.15;;
50104;SDS011;47690;39.202;-77.198;2023-04-04T13:53:28;2.58;;;2.30;;
50104;SDS011;47690;39.202;-77.198;2023-04-04T13:55:59;2.55;;;2.20;;
50104;SDS011;47690;39.202;-77.198;2023-04-04T13:58:45;3.08;;;2.35;;
50104;SDS011;47690;39.202;-77.198;2023-04-04T14:01:14;3.13;;;2.30;;
50104;SDS011;47690;39.202;-77.198;2023-04-04T14:03:43;3.25;;;2.22;;
50104;SDS011;47690;39.202;-77.198;2023-04-04T14:06:15;2.42;;;2.20;;
50104;SDS011;47690;39.202;-77.198;2023-04-04T14:08:44;2.60;;;2.25;;
50104;SDS011;47690;39.202;-77.198;2023-04-04T14:11:14;2.55;;;2.15;;
50104;SDS011;47690;39.202;-77.198;2023-04-04T14:13:43;3.38;;;2.00;;
50104;SDS011;47690;39.202;-77.198;2023-04-04T14:16:13;3.10;;;2.20;;
50104;SDS011;47690;39.202;-77.198;2023-04-04T14:18:43;3.20;;;2.22;;
50104;SDS011;47690;39.202;-77.198;2023-04-04T14:21:11;3.22;;;2.75;;
50104;SDS011;47690;39.202;-77.198;2023-04-04T14:23:40;4.38;;;2.10;;
50104;SDS011;47690;39.202;-77.198;2023-04-04T14:26:09;2.30;;;2.10;;
50104;SDS011;47690;39.202;-77.198;2023-04-04T14:28:38;2.20;;;1.95;;
50104;SDS011;47690;39.202;-77.198;2023-04-04T14:31:08;5.03;;;2.17;;
50104;SDS011;47690;39.202;-77.198;2023-04-04T14:33:37;2.78;;;2.00;;
50104;SDS011;47690;39.202;-77.198;2023-04-04T14:36:07;2.17;;;1.98;;
50104;SDS011;47690;39.202;-77.198;2023-04-04T14:38:36;2.30;;;2.10;;
50104;SDS011;47690;39.202;-77.198;2023-04-04T14:41:06;2.30;;;2.10;;
50104;SDS011;47690;39.202;-77.198;2023-04-04T14:43:35;2.30;;;2.10;;
50104;SDS011;47690;39.202;-77.198;2023-04-04T14:46:04;3.58;;;2.28;;
50104;SDS011;47690;39.202;-77.198;2023-04-04T14:48:34;3.03;;;2.17;;
50104;SDS011;47690;39.202;-77.198;2023-04-04T14:51:03;2.83;;;2.00;;
50104;SDS011;47690;39.202;-77.198;2023-04-04T14:53:33;2.47;;;2.20;;
50104;SDS011;47690;39.202;-77.198;2023-04-04T14:56:02;3.47;;;1.98;;
50104;SDS011;47690;39.202;-77.198;2023-04-04T14:58:31;2.58;;;2.05;;
50104;SDS011;47690;39.202;-77.198;2023-04-04T15:01:00;2.50;;;1.92;;
50104;SDS011;47690;39.202;-77.198;2023-04-04T15:03:30;3.08;;;1.92;;
50104;SDS011;47690;39.202;-77.198;2023-04-04T15:06:02;2.60;;;2.10;;
50104;SDS011;47690;39.202;-77.198;2023-04-04T15:08:31;2.10;;;1.90;;
50104;SDS011;47690;39.202;-77.198;2023-04-04T15:11:00;2.92;;;2.28;;
50104;SDS011;47690;39.202;-77.198;2023-04-04T15:13:30;2.83;;;2.13;;
50104;SDS011;47690;39.202;-77.198;2023-04-04T15:15:59;2.25;;;2.00;;